createdAt,value
2019-03-29T00:01:17.338Z,4.20
2019-03-29T00:03:50.289Z,3.93
2019-03-29T00:06:24.058Z,3.80
2019-03-29T00:08:56.947Z,3.87
2019-03-29T00:11:29.922Z,3.73
2019-03-29T00:14:02.754Z,3.47
2019-03-29T00:16:35.767Z,3.83
2019-03-29T00:19:08.663Z,3.67
2019-03-29T00:21:41.673Z,4.27
2019-03-29T00:24:15.071Z,3.77
2019-03-29T00:26:48.261Z,3.83
2019-03-29T00:29:21.138Z,3.53
2019-03-29T00:31:54.724Z,3.43
2019-03-29T00:34:27.730Z,3.63
2019-03-29T00:37:00.698Z,3.77
2019-03-29T00:39:33.656Z,4.07
2019-03-29T00:42:06.565Z,3.40
2019-03-29T00:44:39.463Z,3.63
2019-03-29T00:47:12.508Z,3.70
2019-03-29T00:49:45.396Z,3.97
2019-03-29T00:52:18.410Z,4.33
2019-03-29T00:54:51.372Z,3.23
2019-03-29T00:57:25.282Z,3.30
2019-03-29T00:59:58.197Z,3.73
2019-03-29T01:02:31.170Z,3.63
2019-03-29T01:05:04.657Z,3.37
2019-03-29T01:07:42.587Z,3.57
2019-03-29T01:10:15.840Z,3.80
2019-03-29T01:12:49.720Z,3.43
2019-03-29T01:15:23.466Z,3.57
2019-03-29T01:17:57.286Z,3.30
2019-03-29T01:20:30.494Z,3.80
2019-03-29T01:23:03.821Z,4.40
2019-03-29T01:25:37.055Z,3.73
2019-03-29T01:28:11.252Z,3.03
2019-03-29T01:30:45.353Z,3.50
2019-03-29T01:33:20.492Z,3.40
2019-03-29T01:35:53.804Z,3.50
2019-03-29T01:38:27.133Z,3.60
2019-03-29T01:41:01.131Z,4.07
2019-03-29T01:43:36.031Z,3.70
2019-03-29T01:46:09.717Z,3.43
2019-03-29T01:48:43.059Z,3.43
2019-03-29T01:51:16.210Z,3.03
2019-03-29T01:53:49.575Z,2.93
2019-03-29T01:56:22.865Z,3.00
2019-03-29T01:58:56.134Z,3.70
2019-03-29T02:01:29.383Z,2.97
2019-03-29T02:04:05.786Z,2.93
2019-03-29T02:06:37.899Z,2.83
2019-03-29T02:09:11.776Z,3.83
2019-03-29T02:11:45.103Z,2.90
2019-03-29T02:14:18.380Z,2.60
2019-03-29T02:16:51.523Z,2.93
2019-03-29T02:19:24.906Z,2.37
2019-03-29T02:21:58.186Z,2.80
2019-03-29T02:24:31.558Z,2.47
2019-03-29T02:27:04.801Z,2.20
2019-03-29T02:29:38.147Z,2.07
2019-03-29T02:32:11.451Z,2.60
2019-03-29T02:34:44.649Z,2.20
2019-03-29T02:37:18.043Z,1.80
2019-03-29T02:39:51.449Z,2.00
2019-03-29T02:42:24.803Z,2.53
2019-03-29T02:44:58.102Z,1.87
2019-03-29T02:47:31.432Z,1.70
2019-03-29T02:50:06.031Z,1.90
2019-03-29T02:52:39.362Z,2.30
2019-03-29T02:55:13.038Z,2.27
2019-03-29T02:57:46.481Z,2.20
2019-03-29T03:00:19.988Z,2.03
2019-03-29T03:02:53.297Z,1.90
2019-03-29T03:05:26.861Z,1.80
2019-03-29T03:08:00.183Z,1.80
2019-03-29T03:10:34.310Z,1.67
2019-03-29T03:13:08.004Z,2.07
2019-03-29T03:15:41.306Z,1.63
2019-03-29T03:18:14.797Z,1.90
2019-03-29T03:20:47.978Z,1.67
2019-03-29T03:23:21.288Z,1.90
2019-03-29T03:25:54.559Z,1.50
2019-03-29T03:28:28.093Z,2.17
2019-03-29T03:31:01.364Z,1.60
2019-03-29T03:33:34.689Z,1.50
2019-03-29T03:36:07.934Z,1.50
2019-03-29T03:38:41.219Z,1.50
2019-03-29T03:41:14.452Z,1.20
2019-03-29T03:43:47.795Z,1.67
2019-03-29T03:46:21.096Z,1.40
2019-03-29T03:48:54.502Z,1.97
2019-03-29T03:51:27.964Z,1.40
2019-03-29T03:54:01.264Z,1.77
2019-03-29T03:56:36.066Z,1.50
2019-03-29T03:59:09.670Z,1.30
2019-03-29T04:01:43.030Z,1.60
2019-03-29T04:04:16.450Z,1.33
2019-03-29T04:06:49.663Z,1.20
2019-03-29T04:09:23.131Z,1.40
2019-03-29T04:11:56.556Z,1.37
2019-03-29T04:14:29.999Z,1.40
2019-03-29T04:17:03.284Z,1.30
2019-03-29T04:19:36.575Z,1.33
2019-03-29T04:22:09.910Z,1.40
2019-03-29T04:24:43.399Z,2.03
2019-03-29T04:27:16.754Z,1.40
2019-03-29T04:29:50.230Z,1.40
2019-03-29T04:32:23.565Z,1.10
2019-03-29T04:34:57.091Z,1.40
2019-03-29T04:37:30.338Z,1.37
2019-03-29T04:40:08.070Z,1.00
2019-03-29T04:42:38.588Z,0.83
2019-03-29T04:45:12.119Z,0.83
2019-03-29T04:47:45.380Z,1.53
2019-03-29T04:50:18.877Z,0.90
2019-03-29T04:52:52.373Z,0.90
2019-03-29T04:55:25.952Z,0.93
2019-03-29T04:57:59.132Z,1.00
2019-03-29T05:00:32.421Z,0.80
2019-03-29T05:03:05.611Z,0.87
2019-03-29T05:05:39.254Z,0.80
2019-03-29T05:08:12.559Z,0.80
2019-03-29T05:10:46.248Z,0.73
2019-03-29T05:13:19.944Z,0.77
2019-03-29T05:15:53.946Z,1.67
2019-03-29T05:18:27.080Z,0.57
2019-03-29T05:21:00.359Z,0.80
2019-03-29T05:23:33.625Z,0.70
2019-03-29T05:26:07.089Z,1.87
2019-03-29T05:28:40.321Z,1.37
2019-03-29T05:31:14.240Z,1.67
2019-03-29T05:33:47.538Z,1.60
2019-03-29T05:36:20.863Z,2.03
2019-03-29T05:38:54.128Z,1.40
2019-03-29T05:41:27.449Z,1.00
2019-03-29T05:44:00.834Z,2.60
2019-03-29T05:46:34.209Z,1.23
2019-03-29T05:49:07.423Z,2.10
2019-03-29T05:51:40.843Z,1.23
2019-03-29T05:54:14.055Z,0.80
2019-03-29T05:56:47.595Z,1.77
2019-03-29T05:59:21.116Z,0.77
2019-03-29T06:01:54.491Z,0.70
2019-03-29T06:04:27.981Z,2.13
2019-03-29T06:07:01.477Z,0.97
2019-03-29T06:09:35.198Z,1.30
2019-03-29T06:12:08.774Z,0.70
2019-03-29T06:14:42.564Z,0.73
2019-03-29T06:17:16.153Z,1.03
2019-03-29T06:19:49.863Z,0.90
2019-03-29T06:22:23.455Z,1.50
2019-03-29T06:24:57.036Z,0.80
2019-03-29T06:27:30.679Z,1.17
2019-03-29T06:30:04.231Z,3.03
2019-03-29T06:32:37.653Z,1.17
2019-03-29T06:35:11.435Z,0.50
2019-03-29T06:37:47.104Z,1.47
2019-03-29T06:40:28.155Z,0.50
2019-03-29T06:43:01.872Z,0.70
2019-03-29T06:45:47.414Z,0.70
2019-03-29T06:48:11.405Z,0.70
2019-03-29T06:50:44.827Z,0.60
2019-03-29T06:53:18.505Z,1.03
2019-03-29T06:55:52.041Z,1.07
2019-03-29T06:58:25.432Z,0.73
2019-03-29T07:00:59.299Z,0.60
2019-03-29T07:03:34.219Z,0.90
2019-03-29T07:06:07.800Z,0.93
2019-03-29T07:08:41.677Z,1.30
2019-03-29T07:11:17.643Z,0.70
2019-03-29T07:13:57.487Z,0.87
2019-03-29T07:16:25.599Z,1.10
2019-03-29T07:18:59.358Z,0.77
2019-03-29T07:21:32.672Z,0.83
2019-03-29T07:24:06.075Z,2.10
2019-03-29T07:26:39.602Z,0.70
2019-03-29T07:29:13.744Z,0.80
2019-03-29T07:31:47.171Z,1.17
2019-03-29T07:34:20.846Z,1.20
2019-03-29T07:36:54.280Z,2.63
2019-03-29T07:39:29.422Z,1.47
2019-03-29T07:42:03.034Z,0.73
2019-03-29T07:44:36.782Z,1.67
2019-03-29T07:47:10.563Z,1.10
2019-03-29T07:49:44.208Z,1.23
2019-03-29T07:52:18.121Z,2.07
2019-03-29T07:54:52.194Z,1.53
2019-03-29T07:57:26.040Z,1.10
2019-03-29T07:59:59.782Z,1.97
2019-03-29T08:02:35.108Z,0.90
2019-03-29T08:05:09.225Z,1.80
2019-03-29T08:07:43.231Z,1.27
2019-03-29T08:10:25.788Z,1.33
2019-03-29T08:12:52.502Z,1.20
2019-03-29T08:15:26.091Z,0.70
2019-03-29T08:18:01.544Z,1.27
2019-03-29T08:20:43.629Z,0.80
2019-03-29T08:23:10.355Z,0.93
2019-03-29T08:25:43.832Z,1.03
2019-03-29T08:28:17.073Z,1.67
2019-03-29T08:30:50.659Z,1.90
2019-03-29T08:33:24.560Z,1.23
2019-03-29T08:35:58.522Z,0.73
2019-03-29T08:38:32.611Z,1.27
2019-03-29T08:41:06.084Z,0.60
2019-03-29T08:43:39.964Z,0.53
2019-03-29T08:46:13.540Z,0.77
2019-03-29T08:48:47.350Z,1.10
2019-03-29T08:51:21.147Z,0.97
2019-03-29T08:53:56.329Z,0.90
2019-03-29T08:56:30.010Z,1.17
2019-03-29T08:59:03.403Z,1.30
2019-03-29T09:01:37.414Z,1.63
2019-03-29T09:04:11.426Z,2.80
2019-03-29T09:06:53.474Z,1.47
2019-03-29T09:09:21.079Z,1.27
2019-03-29T09:11:55.119Z,1.83
2019-03-29T09:14:31.378Z,1.33
2019-03-29T09:17:04.007Z,0.97
2019-03-29T09:19:38.631Z,1.30
2019-03-29T09:22:12.030Z,1.33
2019-03-29T09:24:45.557Z,1.10
2019-03-29T09:27:19.101Z,1.47
2019-03-29T09:29:52.978Z,1.90
2019-03-29T09:32:26.759Z,1.27
2019-03-29T09:35:00.919Z,1.30
2019-03-29T09:37:34.675Z,1.33
2019-03-29T09:40:09.196Z,0.78
2019-03-29T09:42:42.529Z,1.20
2019-03-29T09:45:15.788Z,2.08
2019-03-29T09:47:49.240Z,1.15
2019-03-29T09:50:23.423Z,0.80
2019-03-29T09:52:56.892Z,1.10
2019-03-29T09:55:30.133Z,1.60
2019-03-29T09:58:03.911Z,1.50
2019-03-29T10:00:37.317Z,1.10
2019-03-29T10:03:12.566Z,1.02
2019-03-29T10:05:45.946Z,0.90
2019-03-29T10:08:20.199Z,1.25
2019-03-29T10:10:53.370Z,0.82
2019-03-29T10:13:27.248Z,1.75
2019-03-29T10:16:01.980Z,1.52
2019-03-29T10:18:37.462Z,1.17
2019-03-29T10:21:11.148Z,0.70
2019-03-29T10:23:44.445Z,0.88
2019-03-29T10:26:18.202Z,0.82
2019-03-29T10:28:51.893Z,0.85
2019-03-29T10:31:32.166Z,3.02
2019-03-29T10:34:01.286Z,1.35
2019-03-29T10:36:34.591Z,0.78
2019-03-29T10:39:13.441Z,0.85
2019-03-29T10:41:46.993Z,0.90
2019-03-29T10:44:20.573Z,0.80
2019-03-29T10:46:54.243Z,0.65
2019-03-29T10:49:27.823Z,1.07
2019-03-29T10:52:01.158Z,0.98
2019-03-29T10:54:34.815Z,2.65
2019-03-29T10:57:08.299Z,1.20
2019-03-29T10:59:41.802Z,1.42
2019-03-29T11:02:15.502Z,0.95
2019-03-29T11:04:49.416Z,1.00
2019-03-29T11:07:27.346Z,1.47
2019-03-29T11:10:01.022Z,1.57
2019-03-29T11:12:38.974Z,1.32
2019-03-29T11:15:12.864Z,0.82
2019-03-29T11:17:46.735Z,1.10
2019-03-29T11:20:20.372Z,1.10
2019-03-29T11:22:54.368Z,0.60
2019-03-29T11:25:28.603Z,0.78
2019-03-29T11:28:02.436Z,0.80
2019-03-29T11:30:42.524Z,0.62
2019-03-29T11:33:15.872Z,0.78
2019-03-29T11:35:49.898Z,0.82
2019-03-29T11:38:23.907Z,1.02
2019-03-29T11:40:57.225Z,1.40
2019-03-29T11:43:30.675Z,1.00
2019-03-29T11:46:05.219Z,1.12
2019-03-29T11:48:43.085Z,1.67
2019-03-29T11:51:19.531Z,0.65
2019-03-29T11:53:55.426Z,0.75
2019-03-29T11:56:28.599Z,1.00
2019-03-29T11:59:02.251Z,0.78
2019-03-29T12:01:35.764Z,2.05
2019-03-29T12:04:09.197Z,1.90
2019-03-29T12:06:45.184Z,1.70
2019-03-29T12:09:18.828Z,1.10
2019-03-29T12:11:52.257Z,1.60
2019-03-29T12:14:25.664Z,1.70
2019-03-29T12:16:59.226Z,1.80
2019-03-29T12:19:32.746Z,0.95
2019-03-29T12:22:06.072Z,3.25
2019-03-29T12:24:40.317Z,1.25
2019-03-29T12:27:13.503Z,1.20
2019-03-29T12:29:47.523Z,0.70
2019-03-29T12:32:20.728Z,0.55
2019-03-29T12:34:54.083Z,0.78
2019-03-29T12:37:27.360Z,1.22
2019-03-29T12:40:00.783Z,1.30
2019-03-29T12:42:34.120Z,1.80
2019-03-29T12:45:08.516Z,2.47
2019-03-29T12:47:41.889Z,1.92
2019-03-29T12:50:15.679Z,1.72
2019-03-29T12:52:49.520Z,1.57
2019-03-29T12:55:22.929Z,1.62
2019-03-29T12:57:56.149Z,2.00
2019-03-29T13:00:29.709Z,1.95
2019-03-29T13:03:03.226Z,1.80
2019-03-29T13:05:36.557Z,2.80
2019-03-29T13:08:09.937Z,2.45
2019-03-29T13:10:43.575Z,1.67
2019-03-29T13:13:19.501Z,1.00
2019-03-29T13:15:55.231Z,1.17
2019-03-29T13:18:28.589Z,1.30
2019-03-29T13:21:10.777Z,3.10
2019-03-29T13:23:44.595Z,1.32
2019-03-29T13:26:19.709Z,0.80
2019-03-29T13:28:53.130Z,1.95
2019-03-29T13:31:26.423Z,1.62
2019-03-29T13:33:59.786Z,0.90
2019-03-29T13:36:33.110Z,1.25
2019-03-29T13:39:08.701Z,1.32
2019-03-29T13:41:42.132Z,1.25
2019-03-29T13:44:23.699Z,0.88
2019-03-29T13:46:50.598Z,0.95
2019-03-29T13:49:23.873Z,1.22
2019-03-29T13:51:57.768Z,1.00
2019-03-29T13:54:31.633Z,1.55
2019-03-29T13:57:05.535Z,0.78
2019-03-29T13:59:38.882Z,1.07
2019-03-29T14:02:12.357Z,0.80
2019-03-29T14:04:46.155Z,0.65
2019-03-29T14:07:19.955Z,0.85
2019-03-29T14:09:53.289Z,1.20
2019-03-29T14:12:27.339Z,1.02
2019-03-29T14:15:01.339Z,1.02
2019-03-29T14:17:35.771Z,0.65
2019-03-29T14:20:10.100Z,0.65
2019-03-29T14:22:43.636Z,1.57
2019-03-29T14:25:17.472Z,0.57
2019-03-29T14:27:51.267Z,0.78
2019-03-29T14:30:26.491Z,0.62
2019-03-29T14:33:00.067Z,0.62
2019-03-29T14:35:33.455Z,0.68
2019-03-29T14:38:07.760Z,0.60
2019-03-29T14:40:41.207Z,0.70
2019-03-29T14:43:14.720Z,0.70
2019-03-29T14:45:48.421Z,0.82
2019-03-29T14:48:22.183Z,0.80
2019-03-29T14:50:55.629Z,0.70
2019-03-29T14:53:29.080Z,0.90
2019-03-29T14:56:04.841Z,1.02
2019-03-29T14:58:38.321Z,0.62
2019-03-29T15:01:11.836Z,0.80
2019-03-29T15:03:45.154Z,0.78
2019-03-29T15:06:18.531Z,0.80
2019-03-29T15:08:52.073Z,0.80
2019-03-29T15:11:25.410Z,0.65
2019-03-29T15:13:58.840Z,0.72
2019-03-29T15:16:32.525Z,1.42
2019-03-29T15:19:06.139Z,0.98
2019-03-29T15:21:39.615Z,0.98
2019-03-29T15:24:13.735Z,0.72
2019-03-29T15:26:47.344Z,0.95
2019-03-29T15:29:20.879Z,0.72
2019-03-29T15:31:54.514Z,0.82
2019-03-29T15:34:27.941Z,0.78
2019-03-29T15:37:01.353Z,1.50
2019-03-29T15:39:35.341Z,0.82
2019-03-29T15:42:08.867Z,1.00
2019-03-29T15:44:42.590Z,0.53
2019-03-29T15:47:17.018Z,1.42
2019-03-29T15:49:56.360Z,1.10
2019-03-29T15:52:25.965Z,1.20
2019-03-29T15:54:59.427Z,1.70
2019-03-29T15:57:33.666Z,0.95
2019-03-29T16:00:08.866Z,0.90
2019-03-29T16:02:42.611Z,1.20
2019-03-29T16:05:16.339Z,1.07
2019-03-29T16:07:49.603Z,0.93
2019-03-29T16:10:22.971Z,1.75
2019-03-29T16:12:56.457Z,0.80
2019-03-29T16:15:36.412Z,1.60
2019-03-29T16:18:04.842Z,0.53
2019-03-29T16:20:38.309Z,1.17
2019-03-29T16:23:14.258Z,1.37
2019-03-29T16:25:47.459Z,1.60
2019-03-29T16:28:21.933Z,0.98
2019-03-29T16:30:55.337Z,1.25
2019-03-29T16:33:30.307Z,1.00
2019-03-29T16:36:03.863Z,1.10
2019-03-29T16:38:37.215Z,1.60
2019-03-29T16:41:10.592Z,0.95
2019-03-29T16:43:44.190Z,0.70
2019-03-29T16:46:17.752Z,0.82
2019-03-29T16:48:51.045Z,0.70
2019-03-29T16:51:24.723Z,0.70
2019-03-29T16:53:58.351Z,2.50
2019-03-29T16:56:32.079Z,1.10
2019-03-29T16:59:05.422Z,0.73
2019-03-29T17:01:38.868Z,0.98
2019-03-29T17:04:12.224Z,3.25
2019-03-29T17:06:45.674Z,1.00
2019-03-29T17:09:19.029Z,1.10
2019-03-29T17:11:52.733Z,1.30
2019-03-29T17:14:26.518Z,1.80
2019-03-29T17:16:59.997Z,1.70
2019-03-29T17:19:33.379Z,1.17
2019-03-29T17:22:06.867Z,1.10
2019-03-29T17:24:56.085Z,1.30
2019-03-29T17:27:18.705Z,1.20
2019-03-29T17:29:52.308Z,1.30
2019-03-29T17:32:26.068Z,1.30
2019-03-29T17:34:59.479Z,1.85
2019-03-29T17:37:32.913Z,2.12
2019-03-29T17:40:07.795Z,1.57
2019-03-29T17:42:41.614Z,1.55
2019-03-29T17:45:15.090Z,1.55
2019-03-29T17:47:48.518Z,1.17
2019-03-29T17:50:25.144Z,1.32
2019-03-29T17:52:57.156Z,1.25
2019-03-29T17:55:31.924Z,1.10
2019-03-29T17:58:05.512Z,1.57
2019-03-29T18:00:38.912Z,0.90
2019-03-29T18:03:14.139Z,1.07
2019-03-29T18:05:47.454Z,0.90
2019-03-29T18:08:21.278Z,1.50
2019-03-29T18:10:54.531Z,1.50
2019-03-29T18:13:28.017Z,1.53
2019-03-29T18:16:01.322Z,1.22
2019-03-29T18:18:34.794Z,1.30
2019-03-29T18:21:08.254Z,1.05
2019-03-29T18:23:41.746Z,0.98
2019-03-29T18:26:15.419Z,1.20
2019-03-29T18:28:48.880Z,1.30
2019-03-29T18:31:23.149Z,1.05
2019-03-29T18:33:56.939Z,1.05
2019-03-29T18:36:30.303Z,1.20
2019-03-29T18:39:05.052Z,0.88
2019-03-29T18:41:58.653Z,0.90
2019-03-29T18:44:32.254Z,1.10
2019-03-29T18:47:05.644Z,1.27
2019-03-29T18:49:39.432Z,1.30
2019-03-29T18:52:12.884Z,1.40
2019-03-29T18:54:48.063Z,1.17
2019-03-29T18:57:21.772Z,1.13
2019-03-29T18:59:55.177Z,1.00
2019-03-29T19:02:28.449Z,1.17
2019-03-29T19:05:01.997Z,1.20
2019-03-29T19:07:35.588Z,1.20
2019-03-29T19:10:09.540Z,1.17
2019-03-29T19:12:42.936Z,1.00
2019-03-29T19:15:16.476Z,1.00
2019-03-29T19:17:50.439Z,0.80
2019-03-29T19:20:27.925Z,1.32
2019-03-29T19:22:58.885Z,1.10
2019-03-29T19:25:32.539Z,1.50
2019-03-29T19:28:06.067Z,1.23
2019-03-29T19:30:40.060Z,1.10
2019-03-29T19:33:13.353Z,1.07
2019-03-29T19:35:47.289Z,0.97
2019-03-29T19:38:20.748Z,0.87
2019-03-29T19:40:54.353Z,1.00
2019-03-29T19:43:27.845Z,1.17
2019-03-29T19:46:01.436Z,0.90
2019-03-29T19:48:34.844Z,1.22
2019-03-29T19:51:08.232Z,1.70
2019-03-29T19:53:41.976Z,1.30
2019-03-29T19:56:15.496Z,1.05
2019-03-29T19:58:48.961Z,1.13
2019-03-29T20:01:22.583Z,1.03
2019-03-29T20:03:56.437Z,1.20
2019-03-29T20:06:29.911Z,1.00
2019-03-29T20:09:03.473Z,2.30
2019-03-29T20:11:37.019Z,1.50
2019-03-29T20:14:10.243Z,2.00
2019-03-29T20:16:43.726Z,2.25
2019-03-29T20:19:20.059Z,1.20
2019-03-29T20:21:52.657Z,1.50
2019-03-29T20:24:26.056Z,1.83
2019-03-29T20:26:59.780Z,2.30
2019-03-29T20:29:33.094Z,2.73
2019-03-29T20:32:06.506Z,3.77
2019-03-29T20:34:40.251Z,1.50
2019-03-29T20:37:13.828Z,1.40
2019-03-29T20:39:47.421Z,2.73
2019-03-29T20:42:20.862Z,2.10
2019-03-29T20:44:54.302Z,4.80
2019-03-29T20:47:41.343Z,1.27
2019-03-29T20:50:05.049Z,2.73
2019-03-29T20:52:38.558Z,1.93
2019-03-29T20:55:11.848Z,4.43
2019-03-29T20:57:45.194Z,2.80
2019-03-29T21:00:20.274Z,3.17
2019-03-29T21:02:54.229Z,4.30
2019-03-29T21:05:27.795Z,2.10
2019-03-29T21:08:01.195Z,2.93
2019-03-29T21:10:34.537Z,4.00
2019-03-29T21:13:08.098Z,2.17
2019-03-29T21:15:41.441Z,2.00
2019-03-29T21:18:17.301Z,2.87
2019-03-29T21:20:50.219Z,3.17
2019-03-29T21:23:24.102Z,1.03
2019-03-29T21:25:57.277Z,2.23
2019-03-29T21:28:30.734Z,1.20
2019-03-29T21:31:06.323Z,3.57
2019-03-29T21:33:40.925Z,6.60
2019-03-29T21:36:14.234Z,6.43
2019-03-29T21:38:47.564Z,3.90
2019-03-29T21:41:20.812Z,2.43
2019-03-29T21:43:54.131Z,2.03
2019-03-29T21:46:27.384Z,2.07
2019-03-29T21:49:01.038Z,3.07
2019-03-29T21:51:34.306Z,2.67
2019-03-29T21:54:07.726Z,1.63
2019-03-29T21:56:41.022Z,3.87
2019-03-29T21:59:14.420Z,4.67
2019-03-29T22:01:47.688Z,1.50
2019-03-29T22:04:21.018Z,2.30
2019-03-29T22:06:54.474Z,3.60
2019-03-29T22:09:36.817Z,1.60
2019-03-29T22:12:02.622Z,1.73
2019-03-29T22:14:36.131Z,1.27
2019-03-29T22:17:09.424Z,3.70
2019-03-29T22:19:42.858Z,1.30
2019-03-29T22:22:16.125Z,3.00
2019-03-29T22:24:49.538Z,2.47
2019-03-29T22:27:22.791Z,1.63
2019-03-29T22:29:56.151Z,2.87
2019-03-29T22:32:29.635Z,4.13
2019-03-29T22:35:03.059Z,3.23
2019-03-29T22:37:36.400Z,3.07
2019-03-29T22:40:11.190Z,4.13
2019-03-29T22:42:44.416Z,3.07
2019-03-29T22:45:18.021Z,5.47
2019-03-29T22:47:51.275Z,2.53
2019-03-29T22:50:24.721Z,4.70
2019-03-29T22:52:57.978Z,2.67
2019-03-29T22:55:31.312Z,4.73
2019-03-29T22:58:05.391Z,3.77
2019-03-29T23:00:43.741Z,4.60
2019-03-29T23:03:17.685Z,4.50
2019-03-29T23:05:51.058Z,5.00
2019-03-29T23:08:25.590Z,3.40
2019-03-29T23:10:58.967Z,4.73
2019-03-29T23:13:32.888Z,7.03
2019-03-29T23:16:06.332Z,5.37
2019-03-29T23:18:39.767Z,6.67
2019-03-29T23:21:13.115Z,3.43
2019-03-29T23:23:47.179Z,3.07
2019-03-29T23:26:21.045Z,4.50
2019-03-29T23:28:54.333Z,5.37
2019-03-29T23:31:28.209Z,3.67
2019-03-29T23:34:01.471Z,4.33
2019-03-29T23:36:34.882Z,3.67
2019-03-29T23:39:08.770Z,4.03
2019-03-29T23:41:42.127Z,5.47
2019-03-29T23:44:15.379Z,7.00
2019-03-29T23:46:48.775Z,7.33
2019-03-29T23:49:22.151Z,3.50
2019-03-29T23:51:55.815Z,3.93
2019-03-29T23:54:29.669Z,7.40
2019-03-29T23:57:03.158Z,2.33
2019-03-29T23:59:36.393Z,6.27
